Time;durP1;ratioP1;P1;durP2;ratioP2;P2;SDS_P1;SDS_P2;PMS_P1;PMS_P2;Temp;Humidity;BMP_temperature;BMP_pressure;BME280_temperature;BME280_humidity;BME280_pressure;Samples;Min_cycle;Max_cycle;Signal;HPM_P1;HPM_P2
2021/12/19 00:01:20;;;;;;;49.03;20.30;;;;;;;-0.16;85.31;97761.59;5069618;28;20056;-73
2021/12/19 00:03:56;;;;;;;53.63;22.27;;;;;;;-0.19;85.24;97766.59;5069659;28;20052;-74
2021/12/19 00:09:07;;;;;;;54.35;22.25;;;;;;;-0.38;86.28;97730.84;5069403;28;20074;-73
2021/12/19 00:11:34;;;;;;;55.70;22.65;;;;;;;-0.45;86.62;97733.56;5069627;28;20048;-73
2021/12/19 00:14:02;;;;;;;56.83;22.35;;;;;;;-0.45;86.87;97736.25;5067522;28;20512;-73
2021/12/19 00:16:28;;;;;;;59.15;23.23;;;;;;;-0.37;87.11;97735.97;5069527;28;20044;-74
2021/12/19 00:18:57;;;;;;;57.53;23.05;;;;;;;-0.28;87.00;97742.72;5069310;28;20079;-73
2021/12/19 00:21:25;;;;;;;60.30;24.20;;;;;;;-0.20;86.75;97744.34;5069212;28;20052;-73
2021/12/19 00:23:53;;;;;;;62.88;24.60;;;;;;;-0.11;85.81;97756.41;5069456;28;20071;-73
2021/12/19 00:26:21;;;;;;;57.38;24.20;;;;;;;-0.07;85.54;97743.44;5068585;28;20052;-73
2021/12/19 00:28:49;;;;;;;59.90;23.83;;;;;;;-0.09;84.98;97750.88;5068644;28;20068;-73
2021/12/19 00:31:15;;;;;;;58.08;22.65;;;;;;;-0.12;85.39;97756.63;5068783;28;20052;-73
2021/12/19 00:33:43;;;;;;;56.97;22.55;;;;;;;-0.13;85.58;97745.13;5068894;28;20544;-73
2021/12/19 00:36:11;;;;;;;58.88;22.95;;;;;;;-0.16;85.78;97750.06;5068637;28;20051;-73
2021/12/19 00:38:37;;;;;;;58.17;22.40;;;;;;;-0.19;85.99;97745.97;5068298;28;20056;-73
2021/12/19 00:41:05;;;;;;;59.50;23.77;;;;;;;-0.29;86.29;97733.06;5068407;28;20040;-73
2021/12/19 00:43:35;;;;;;;63.08;23.70;;;;;;;-0.32;86.67;97744.19;5068593;28;20059;-73
2021/12/19 00:46:06;;;;;;;65.88;24.40;;;;;;;-0.33;87.23;97739.06;5068435;28;20064;-72
2021/12/19 00:48:34;;;;;;;63.88;23.98;;;;;;;-0.38;87.24;97731.66;5068700;28;20458;-73
2021/12/19 00:51:01;;;;;;;66.88;25.05;;;;;;;-0.36;87.54;97737.66;5068788;28;20052;-73
2021/12/19 00:53:29;;;;;;;69.28;24.98;;;;;;;-0.32;87.60;97728.13;5068778;28;20534;-73
2021/12/19 00:55:55;;;;;;;60.88;24.17;;;;;;;-0.27;87.52;97722.94;5068832;28;20746;-73
2021/12/19 00:58:22;;;;;;;69.10;26.75;;;;;;;-0.28;87.34;97715.13;5068066;28;20056;-73
2021/12/19 01:00:48;;;;;;;69.63;26.60;;;;;;;-0.32;87.24;97714.75;5068263;28;20044;-73
2021/12/19 01:03:16;;;;;;;65.93;24.98;;;;;;;-0.35;87.69;97711.69;5068127;28;20060;-73
2021/12/19 01:05:43;;;;;;;63.40;24.20;;;;;;;-0.32;87.54;97720.09;5068625;28;20044;-73
2021/12/19 01:08:12;;;;;;;60.92;23.83;;;;;;;-0.25;87.62;97708.56;5067779;28;20427;-73
2021/12/19 01:10:42;;;;;;;67.07;24.27;;;;;;;-0.22;87.15;97708.91;5068236;28;20153;-73
2021/12/19 01:13:09;;;;;;;65.38;24.65;;;;;;;-0.13;86.98;97717.53;5065897;28;20052;-73
2021/12/19 01:15:35;;;;;;;66.03;25.10;;;;;;;-0.08;86.60;97725.72;5068425;28;20471;-73
2021/12/19 01:18:03;;;;;;;54.95;22.38;;;;;;;-0.13;85.59;97728.22;5067597;28;20056;-73
2021/12/19 01:20:33;;;;;;;57.67;21.52;;;;;;;-0.19;85.71;97729.09;5068439;28;20518;-73
2021/12/19 01:23:00;;;;;;;57.13;23.02;;;;;;;-0.18;84.83;97720.84;5068433;28;20055;-74
2021/12/19 01:25:27;;;;;;;56.22;23.15;;;;;;;-0.29;85.23;97722.34;5067974;28;20048;-73
2021/12/19 01:27:55;;;;;;;65.25;24.48;;;;;;;-0.37;85.92;97729.81;5068180;28;20045;-73
2021/12/19 01:30:22;;;;;;;66.72;24.63;;;;;;;-0.38;86.23;97731.66;5067735;28;20491;-73
2021/12/19 01:32:49;;;;;;;62.17;23.67;;;;;;;-0.42;86.49;97725.09;5068203;28;20055;-74
2021/12/19 01:35:18;;;;;;;66.82;23.35;;;;;;;-0.35;87.01;97727.75;5067058;28;20526;-73
2021/12/19 01:37:45;;;;;;;61.70;23.65;;;;;;;-0.33;86.79;97723.81;5066006;28;20052;-74
2021/12/19 01:40:15;;;;;;;64.93;22.23;;;;;;;-0.32;87.10;97724.63;5067324;28;20049;-73
2021/12/19 01:42:48;;;;;;;63.38;22.42;;;;;;;-0.39;86.91;97726.53;5066178;28;20531;-73
2021/12/19 01:45:24;;;;;;;60.65;22.65;;;;;;;-0.37;86.90;97730.63;5067474;28;20053;-73
2021/12/19 01:47:51;;;;;;;60.10;23.25;;;;;;;-0.31;86.77;97735.16;5067777;28;20040;-74
2021/12/19 01:50:17;;;;;;;62.58;24.00;;;;;;;-0.30;86.02;97718.03;5067373;28;20106;-73
2021/12/19 01:52:44;;;;;;;74.25;24.88;;;;;;;-0.27;85.81;97722.13;5067963;28;20052;-74
2021/12/19 01:55:11;;;;;;;63.80;23.08;;;;;;;-0.24;86.11;97726.25;5067454;28;20048;-73
2021/12/19 01:57:37;;;;;;;68.65;23.77;;;;;;;-0.23;86.13;97730.56;5067569;28;20053;-73
2021/12/19 02:00:06;;;;;;;67.50;22.02;;;;;;;-0.19;86.15;97729.09;5067171;28;20052;-73
2021/12/19 02:02:34;;;;;;;59.40;21.45;;;;;;;-0.16;85.98;97728.66;5067804;28;20491;-74
2021/12/19 02:05:00;;;;;;;61.58;22.40;;;;;;;-0.11;85.88;97726.16;5068030;28;20051;-74
2021/12/19 02:07:28;;;;;;;58.35;21.67;;;;;;;-0.12;85.43;97724.50;5067066;28;20044;-74
2021/12/19 02:09:55;;;;;;;59.38;21.40;;;;;;;-0.19;85.28;97713.03;5067392;28;20128;-74
2021/12/19 02:12:21;;;;;;;62.70;23.80;;;;;;;-0.15;85.71;97716.94;5065600;28;20044;-73
2021/12/19 02:14:49;;;;;;;62.75;22.75;;;;;;;-0.09;85.83;97735.63;5086292;28;20044;-74
2021/12/19 02:17:17;;;;;;;63.42;23.08;;;;;;;-0.19;85.93;97729.09;5087091;28;20048;-73
2021/12/19 02:19:45;;;;;;;67.97;22.42;;;;;;;-0.39;86.80;97713.16;5087854;28;20051;-73
2021/12/19 02:22:12;;;;;;;66.53;21.58;;;;;;;-0.53;87.70;97709.72;5087075;28;20044;-73
2021/12/19 02:24:39;;;;;;;72.38;23.52;;;;;;;-0.68;88.69;97703.81;5087822;28;20125;-73
2021/12/19 02:27:05;;;;;;;86.25;23.48;;;;;;;-0.73;89.49;97700.97;5086795;28;20052;-74
2021/12/19 02:29:32;;;;;;;74.80;24.20;;;;;;;-0.79;90.12;97708.81;5087505;28;20051;-74
2021/12/19 02:31:58;;;;;;;86.38;26.42;;;;;;;-0.77;90.54;97713.97;5087128;28;20051;-73
2021/12/19 02:34:28;;;;;;;78.55;24.77;;;;;;;-0.77;90.52;97713.16;5087223;28;20052;-74
2021/12/19 02:37:00;;;;;;;67.75;23.35;;;;;;;-0.79;90.75;97706.13;5087226;28;20044;-74
2021/12/19 02:39:51;;;;;;;84.15;22.95;;;;;;;-0.81;90.92;97707.41;5087191;28;20078;-74
2021/12/19 02:50:33;;;;;;;70.28;23.08;;;;;;;-0.77;91.40;97699.78;5046827;28;20595;-74
2021/12/19 02:52:59;;;;;;;78.00;23.23;;;;;;;-0.77;91.35;97683.72;5047334;28;20044;-74
2021/12/19 02:55:28;;;;;;;73.85;23.00;;;;;;;-0.85;91.37;97677.56;5046597;28;20049;-74
2021/12/19 02:57:54;;;;;;;91.28;24.90;;;;;;;-0.90;91.51;97688.09;5046945;28;20412;-74
2021/12/19 03:00:25;;;;;;;86.70;25.13;;;;;;;-0.91;91.82;97685.63;5046218;28;20087;-74
2021/12/19 03:02:53;;;;;;;75.47;21.73;;;;;;;-0.90;92.11;97680.06;5047353;28;20049;-74
2021/12/19 03:05:19;;;;;;;81.60;25.15;;;;;;;-0.85;92.23;97676.75;5046545;28;20114;-74
2021/12/19 03:07:49;;;;;;;76.13;23.63;;;;;;;-0.78;92.30;97666.88;5047020;28;20041;-74
2021/12/19 03:10:47;;;;;;;68.63;21.92;;;;;;;-0.76;92.08;97663.97;5046045;28;20481;-73
2021/12/19 03:13:17;;;;;;;71.80;22.17;;;;;;;-0.76;92.25;97672.00;5052254;28;20514;-74
2021/12/19 03:18:29;;;;;;;70.75;21.48;;;;;;;-0.62;91.92;97661.00;5066521;28;20059;-74
2021/12/19 03:20:56;;;;;;;71.75;21.13;;;;;;;-0.55;91.86;97656.44;5066840;28;20099;-74
2021/12/19 03:23:22;;;;;;;66.85;21.30;;;;;;;-0.45;91.55;97660.50;5067723;28;20572;-74
2021/12/19 03:25:49;;;;;;;77.00;23.08;;;;;;;-0.43;91.39;97669.13;5070575;28;20059;-75
2021/12/19 03:28:17;;;;;;;67.68;19.45;;;;;;;-0.46;90.34;97669.56;5069807;28;20078;-73
2021/12/19 03:30:47;;;;;;;66.18;20.35;;;;;;;-0.56;90.52;97670.03;5070291;28;20458;-74
2021/12/19 03:33:14;;;;;;;69.50;21.20;;;;;;;-0.56;90.79;97670.84;5070073;28;20056;-74
2021/12/19 03:35:41;;;;;;;65.07;20.48;;;;;;;-0.55;91.40;97661.78;5070523;28;20049;-74
2021/12/19 03:38:11;;;;;;;63.97;19.92;;;;;;;-0.54;91.17;97667.94;5069697;28;20048;-74
2021/12/19 03:40:39;;;;;;;77.95;21.25;;;;;;;-0.49;91.48;97668.13;5070275;28;20045;-74
2021/12/19 03:43:08;;;;;;;68.93;21.83;;;;;;;-0.46;91.35;97658.88;5067587;28;20048;-73
2021/12/19 03:45:37;;;;;;;66.43;20.92;;;;;;;-0.39;91.04;97655.09;5070279;28;20051;-75
2021/12/19 03:48:05;;;;;;;86.93;22.17;;;;;;;-0.45;90.69;97653.28;5069601;28;20052;-74
2021/12/19 03:50:33;;;;;;;77.15;21.60;;;;;;;-0.50;90.76;97642.41;5070125;28;20055;-74
2021/12/19 03:53:01;;;;;;;63.88;19.40;;;;;;;-0.56;91.04;97632.56;5070129;28;20121;-74
2021/12/19 03:55:28;;;;;;;76.63;21.35;;;;;;;-0.53;91.21;97640.97;5069899;28;20045;-74
2021/12/19 03:57:57;;;;;;;73.07;20.27;;;;;;;-0.56;91.53;97637.94;5069760;28;20047;-74
2021/12/19 04:00:25;;;;;;;77.28;20.88;;;;;;;-0.61;91.58;97645.78;5069656;28;20407;-74
2021/12/19 04:02:56;;;;;;;74.72;21.02;;;;;;;-0.62;91.77;97638.78;5069876;28;20079;-74
2021/12/19 04:05:23;;;;;;;72.88;21.75;;;;;;;-0.53;91.98;97648.19;5069528;28;20044;-74
2021/12/19 04:07:50;;;;;;;70.85;21.63;;;;;;;-0.48;92.19;97640.31;5069601;28;20041;-74
2021/12/19 04:10:17;;;;;;;74.68;21.48;;;;;;;-0.40;92.02;97631.22;5069263;28;20044;-73
2021/12/19 04:12:44;;;;;;;80.05;21.80;;;;;;;-0.41;91.58;97629.59;5068500;28;20052;-74
2021/12/19 04:15:10;;;;;;;69.25;19.27;;;;;;;-0.48;91.54;97634.97;5069370;28;20056;-73
2021/12/19 04:17:37;;;;;;;66.72;19.25;;;;;;;-0.56;91.63;97635.25;5069447;28;20193;-74
2021/12/19 04:20:06;;;;;;;73.05;19.13;;;;;;;-0.56;91.93;97635.25;5068913;28;20414;-73
2021/12/19 04:22:33;;;;;;;82.88;21.45;;;;;;;-0.62;92.07;97628.91;5069561;28;20118;-74
2021/12/19 04:24:59;;;;;;;77.78;20.15;;;;;;;-0.69;92.30;97621.94;5069658;28;20060;-74
2021/12/19 04:27:26;;;;;;;64.60;19.55;;;;;;;-0.72;92.55;97617.84;5068646;28;20416;-74
2021/12/19 04:29:54;;;;;;;88.40;21.58;;;;;;;-0.76;92.83;97605.94;5069234;28;20522;-74
2021/12/19 04:32:25;;;;;;;72.72;20.83;;;;;;;-0.77;93.12;97598.16;5068777;28;20056;-74
2021/12/19 04:34:51;;;;;;;79.07;20.77;;;;;;;-0.81;93.51;97603.91;5068969;28;20041;-73
2021/12/19 04:37:39;;;;;;;90.93;22.27;;;;;;;-0.76;93.74;97602.44;5068397;28;20055;-74
2021/12/19 04:40:13;;;;;;;90.53;21.38;;;;;;;-0.81;93.92;97600.41;5068762;28;20049;-73
2021/12/19 04:51:05;;;;;;;87.10;21.33;;;;;;;-0.83;94.28;97573.91;5068905;28;20102;-74
2021/12/19 04:53:47;;;;;;;83.82;20.08;;;;;;;-0.87;94.29;97575.34;5069012;28;20044;-74
2021/12/19 04:56:29;;;;;;;78.63;19.95;;;;;;;-0.95;94.51;97575.59;5068323;28;20079;-74
2021/12/19 05:05:01;;;;;;;69.78;19.13;;;;;;;-0.84;94.83;97584.78;5052326;28;20412;-73
2021/12/19 05:15:38;;;;;;;70.60;19.73;;;;;;;-0.63;94.02;97597.81;5088878;28;20059;-74
2021/12/19 05:18:08;;;;;;;75.70;18.95;;;;;;;-0.58;93.97;97599.84;5087931;28;20055;-73
2021/12/19 05:20:36;;;;;;;66.15;17.08;;;;;;;-0.45;94.12;97607.78;5088500;28;20044;-74
2021/12/19 05:23:09;;;;;;;76.70;18.25;;;;;;;-0.42;93.67;97596.63;5088348;28;20135;-73
2021/12/19 05:25:36;;;;;;;;;;;;;;;-0.48;92.59;97594.84;5089021;28;20083;-74
2021/12/19 05:28:03;;;;;;;61.47;16.52;;;;;;;-0.61;92.32;97594.94;5087838;28;19924;-73
2021/12/19 05:30:30;;;;;;;69.38;16.10;;;;;;;-0.66;92.66;97584.06;5088478;28;20143;-73
2021/12/19 05:32:59;;;;;;;69.45;17.08;;;;;;;-0.72;93.17;97585.75;5088561;28;20044;-74
2021/12/19 05:35:43;;;;;;;57.42;15.98;;;;;;;-0.73;93.46;97591.31;5087856;28;20048;-74
2021/12/19 05:46:23;;;;;;;59.00;15.50;;;;;;;-0.61;93.63;97576.22;5067030;28;20083;-74
2021/12/19 05:48:49;;;;;;;60.58;16.75;;;;;;;-0.60;93.58;97578.66;5067401;28;20422;-73
2021/12/19 05:51:16;;;;;;;58.80;15.40;;;;;;;-0.55;93.46;97578.84;5067596;28;20707;-73
2021/12/19 05:53:44;;;;;;;55.33;14.13;;;;;;;-0.56;93.31;97585.22;5067799;28;20071;-74
2021/12/19 05:56:12;;;;;;;50.83;14.40;;;;;;;-0.51;93.08;97589.13;5067527;28;20060;-73
2021/12/19 05:58:38;;;;;;;64.63;15.88;;;;;;;-0.49;92.85;97574.47;5067597;28;20048;-73
2021/12/19 06:01:05;;;;;;;65.45;15.65;;;;;;;-0.53;92.66;97567.91;5067288;28;20064;-73
2021/12/19 06:03:32;;;;;;;52.13;14.60;;;;;;;-0.56;92.60;97568.38;5067892;28;20048;-74
2021/12/19 06:05:58;;;;;;;49.25;14.65;;;;;;;-0.58;93.03;97559.72;5067692;28;20515;-74
2021/12/19 06:08:25;;;;;;;57.65;15.65;;;;;;;-0.60;92.89;97551.91;5066788;28;20052;-73
2021/12/19 06:10:51;;;;;;;53.30;16.02;;;;;;;-0.63;93.04;97556.88;5067758;28;20048;-73
2021/12/19 06:13:19;;;;;;;52.42;14.60;;;;;;;-0.62;93.29;97570.06;5065669;28;20518;-73
2021/12/19 06:15:49;;;;;;;59.05;15.75;;;;;;;-0.68;93.13;97564.72;5067857;28;20052;-74
2021/12/19 06:18:16;;;;;;;49.97;14.43;;;;;;;-0.71;93.28;97565.19;5066934;28;20591;-73
2021/12/19 06:20:42;;;;;;;57.10;15.48;;;;;;;-0.76;93.54;97568.50;5067592;28;20051;-73
2021/12/19 06:23:09;;;;;;;54.22;15.00;;;;;;;-0.79;93.64;97569.72;5066728;28;20512;-73
2021/12/19 06:25:36;;;;;;;57.35;15.00;;;;;;;-0.75;93.87;97564.78;5067689;28;20052;-75
2021/12/19 06:28:03;;;;;;;61.95;15.05;;;;;;;-0.76;93.70;97567.69;5066354;28;20068;-73
2021/12/19 06:30:31;;;;;;;54.05;14.13;;;;;;;-0.74;93.65;97557.56;5067488;28;20135;-73
2021/12/19 06:32:57;;;;;;;57.38;15.02;;;;;;;-0.76;93.68;97559.66;5067335;28;20056;-73
2021/12/19 06:35:29;;;;;;;54.40;14.40;;;;;;;-0.72;93.70;97564.38;5067243;28;20801;-74
2021/12/19 06:37:55;;;;;;;49.03;14.30;;;;;;;-0.75;93.45;97561.28;5066909;28;20052;-73
2021/12/19 06:40:25;;;;;;;50.08;14.68;;;;;;;-0.68;93.66;97554.03;5066981;28;20126;-73
2021/12/19 06:42:52;;;;;;;66.15;17.13;;;;;;;-0.67;93.44;97535.09;5065829;28;20044;-74
2021/12/19 06:45:20;;;;;;;63.78;16.75;;;;;;;-0.79;93.42;97526.13;5066731;28;20751;-74
2021/12/19 06:47:48;;;;;;;73.28;18.77;;;;;;;-0.77;93.73;97529.41;5066966;28;20044;-74
2021/12/19 06:50:16;;;;;;;73.72;18.45;;;;;;;-0.79;93.47;97526.94;5066358;28;20044;-73
2021/12/19 06:52:43;;;;;;;64.10;18.27;;;;;;;-0.81;93.48;97542.41;5067147;28;20117;-73
2021/12/19 06:55:13;;;;;;;64.05;18.40;;;;;;;-0.84;93.34;97533.97;5066793;28;20098;-73
2021/12/19 06:57:40;;;;;;;71.45;18.65;;;;;;;-0.89;93.38;97526.63;5066910;28;20056;-73
2021/12/19 07:00:10;;;;;;;79.50;18.23;;;;;;;-0.87;93.48;97527.22;5070416;28;20049;-74
2021/12/19 07:02:36;;;;;;;64.28;18.08;;;;;;;-0.87;93.49;97534.44;5071189;28;20041;-73
2021/12/19 07:05:05;;;;;;;61.92;16.80;;;;;;;-0.85;93.71;97533.16;5070655;28;20045;-72
2021/12/19 07:07:31;;;;;;;72.00;16.38;;;;;;;-0.83;93.55;97547.16;5070327;28;20041;-75
2021/12/19 07:09:58;;;;;;;71.30;17.40;;;;;;;-0.88;93.42;97538.97;5070727;28;20753;-74
2021/12/19 07:12:26;;;;;;;60.53;16.88;;;;;;;-0.89;93.47;97537.31;5069273;28;20044;-73
2021/12/19 07:14:53;;;;;;;60.17;16.95;;;;;;;-0.92;93.70;97540.41;5070969;28;20048;-73
2021/12/19 07:17:19;;;;;;;63.10;16.90;;;;;;;-0.90;93.75;97538.34;5069910;28;20578;-73
2021/12/19 07:19:46;;;;;;;55.25;16.08;;;;;;;-0.87;93.75;97540.59;5070510;28;20056;-74
2021/12/19 07:22:14;;;;;;;57.53;15.77;;;;;;;-0.85;93.82;97541.19;5070175;28;20049;-73
2021/12/19 07:24:41;;;;;;;54.15;15.43;;;;;;;-0.81;93.74;97517.50;5070861;28;20079;-74
2021/12/19 07:27:07;;;;;;;59.60;14.48;;;;;;;-0.88;93.51;97527.44;5069994;28;20577;-73
2021/12/19 07:29:34;;;;;;;51.67;14.00;;;;;;;-0.89;93.57;97531.97;5070279;28;20770;-73
2021/12/19 07:32:01;;;;;;;58.92;12.98;;;;;;;-0.95;93.50;97530.16;5070292;28;20044;-73
2021/12/19 07:34:31;;;;;;;39.47;11.30;;;;;;;-1.05;93.49;97524.44;5070282;28;20044;-74
2021/12/19 07:36:58;;;;;;;47.92;12.43;;;;;;;-1.13;93.78;97524.72;5070389;28;20074;-74
2021/12/19 07:39:38;;;;;;;54.83;12.32;;;;;;;-1.16;94.06;97527.81;5069414;28;20049;-74
2021/12/19 07:42:07;;;;;;;49.03;13.10;;;;;;;-1.13;94.36;97517.53;5068587;28;20162;-73
2021/12/19 07:44:34;;;;;;;49.22;13.63;;;;;;;-1.14;94.27;97507.06;5070248;28;20081;-74
2021/12/19 07:47:01;;;;;;;61.50;17.85;;;;;;;-1.24;94.30;97501.34;5070056;28;20055;-73
2021/12/19 07:49:28;;;;;;;59.50;14.05;;;;;;;-1.29;94.65;97509.19;5070017;28;20044;-73
2021/12/19 07:51:54;;;;;;;62.15;15.68;;;;;;;-1.29;94.84;97509.19;5070602;28;20052;-73
2021/12/19 07:54:21;;;;;;;68.35;17.08;;;;;;;-1.35;95.06;97506.34;5069667;28;20044;-73
2021/12/19 07:56:49;;;;;;;72.47;16.17;;;;;;;-1.23;95.16;97497.66;5070135;28;20049;-73
2021/12/19 07:59:16;;;;;;;71.90;15.90;;;;;;;-1.21;94.91;97496.38;5069073;28;20056;-74
2021/12/19 08:01:42;;;;;;;72.07;16.63;;;;;;;-1.24;95.11;97494.16;5070126;28;20040;-73
2021/12/19 08:04:08;;;;;;;66.68;17.52;;;;;;;-1.20;95.63;97505.22;5069567;28;20048;-73
2021/12/19 08:06:35;;;;;;;60.72;17.67;;;;;;;-1.13;95.41;97508.69;5069835;28;20503;-73
2021/12/19 08:09:08;;;;;;;64.45;16.05;;;;;;;-1.11;95.16;97506.59;5069291;28;20067;-71
2021/12/19 08:11:41;;;;;;;64.57;15.32;;;;;;;-1.09;95.05;97512.56;5068819;28;20037;-73
2021/12/19 08:14:11;;;;;;;67.78;16.10;;;;;;;-1.16;94.91;97511.78;5089497;28;20047;-73
2021/12/19 08:16:37;;;;;;;71.45;16.27;;;;;;;-1.19;95.02;97510.38;5090220;28;20096;-73
2021/12/19 08:19:04;;;;;;;65.53;15.95;;;;;;;-1.21;94.91;97503.59;5075552;28;20052;-73
2021/12/19 08:21:31;;;;;;;77.28;18.50;;;;;;;-1.17;95.15;97508.28;5069933;28;20052;-73
2021/12/19 08:24:00;;;;;;;68.75;17.17;;;;;;;-1.12;95.17;97507.66;5069315;28;20055;-73
2021/12/19 08:26:27;;;;;;;47.13;13.77;;;;;;;-1.10;95.34;97500.22;5069232;28;20048;-73
2021/12/19 08:28:53;;;;;;;44.53;12.98;;;;;;;-0.98;95.40;97485.16;5068924;28;20048;-73
2021/12/19 08:31:21;;;;;;;55.30;15.75;;;;;;;-0.85;95.25;97482.34;5069124;28;20768;-73
2021/12/19 08:33:48;;;;;;;57.22;15.40;;;;;;;-0.80;94.63;97473.69;5069285;28;20045;-73
2021/12/19 08:36:15;;;;;;;80.72;15.77;;;;;;;-0.87;93.71;97465.72;5068993;28;20059;-74
2021/12/19 08:38:42;;;;;;;71.53;16.70;;;;;;;-0.90;93.49;97466.16;5068935;28;20052;-73
2021/12/19 08:41:08;;;;;;;62.33;15.82;;;;;;;-0.91;93.65;97459.16;5068897;28;20079;-73
2021/12/19 08:43:35;;;;;;;59.78;14.95;;;;;;;-0.90;93.76;97471.50;5068691;28;20499;-73
2021/12/19 08:46:02;;;;;;;66.43;15.73;;;;;;;-0.95;93.75;97468.66;5068945;28;20056;-73
2021/12/19 08:48:29;;;;;;;62.03;16.25;;;;;;;-0.92;93.89;97475.44;5068267;28;20503;-72
2021/12/19 08:50:56;;;;;;;52.15;15.57;;;;;;;-0.90;94.06;97484.03;5069105;28;20411;-73
2021/12/19 08:53:22;;;;;;;63.42;16.05;;;;;;;-0.93;93.81;97471.94;5068734;28;20106;-73
2021/12/19 08:55:49;;;;;;;61.40;15.82;;;;;;;-1.00;93.92;97476.50;5068580;28;20053;-73
2021/12/19 08:58:15;;;;;;;56.92;15.88;;;;;;;-1.00;94.19;97481.84;5067384;28;20056;-73
2021/12/19 09:00:42;;;;;;;58.67;16.45;;;;;;;-0.92;94.53;97475.44;5068979;28;20052;-73
2021/12/19 09:03:09;;;;;;;65.88;16.45;;;;;;;-0.85;94.47;97476.19;5067859;28;20052;-73
2021/12/19 09:05:37;;;;;;;65.05;18.23;;;;;;;-0.82;94.26;97468.56;5068560;28;20535;-73
2021/12/19 09:08:04;;;;;;;61.45;17.27;;;;;;;-0.79;94.28;97472.63;5067325;28;20045;-73
2021/12/19 09:10:32;;;;;;;55.38;16.77;;;;;;;-0.74;94.29;97470.13;5068258;28;20052;-73
2021/12/19 09:12:59;;;;;;;58.47;15.07;;;;;;;-0.68;93.98;97481.81;5067997;28;20040;-74
2021/12/19 09:15:25;;;;;;;63.10;17.08;;;;;;;-0.69;93.76;97472.97;5067815;28;20052;-74
2021/12/19 09:17:52;;;;;;;56.65;16.38;;;;;;;-0.70;93.70;97460.63;5067560;28;20048;-74
2021/12/19 09:20:19;;;;;;;64.43;17.27;;;;;;;-0.71;93.57;97460.88;5066866;28;20055;-74
2021/12/19 09:22:47;;;;;;;70.00;17.27;;;;;;;-0.77;93.45;97467.91;5067306;28;20059;-74
2021/12/19 09:25:14;;;;;;;65.60;17.30;;;;;;;-0.74;93.54;97461.28;5066097;28;20076;-74
2021/12/19 09:27:40;;;;;;;68.30;18.40;;;;;;;-0.79;93.58;97462.75;5067830;28;20052;-74
2021/12/19 09:30:08;;;;;;;69.13;17.42;;;;;;;-0.72;93.77;97461.91;5067005;28;20492;-72
2021/12/19 09:32:34;;;;;;;65.82;17.80;;;;;;;-0.73;93.59;97455.75;5068005;28;20052;-73
2021/12/19 09:35:01;;;;;;;60.35;18.35;;;;;;;-0.71;93.69;97452.84;5068013;28;20044;-73
2021/12/19 09:37:29;;;;;;;59.03;16.80;;;;;;;-0.66;93.75;97458.34;5067462;28;20047;-74
2021/12/19 09:40:01;;;;;;;56.50;16.67;;;;;;;-0.65;93.59;97454.63;5067351;28;20508;-74
2021/12/19 09:42:33;;;;;;;56.38;17.13;;;;;;;-0.63;93.65;97452.53;5067897;28;20121;-74
2021/12/19 09:45:01;;;;;;;54.25;16.02;;;;;;;-0.62;93.51;97440.84;5067952;28;20519;-74
2021/12/19 09:47:27;;;;;;;55.75;16.58;;;;;;;-0.57;93.78;97432.97;5067543;28;20124;-74
2021/12/19 09:49:57;;;;;;;48.17;15.68;;;;;;;-0.55;93.46;97436.22;5067664;28;20051;-74
2021/12/19 09:52:23;;;;;;;57.95;15.18;;;;;;;-0.64;93.14;97427.66;5067594;28;20542;-74
2021/12/19 09:54:50;;;;;;;57.78;15.23;;;;;;;-0.64;93.25;97411.59;5067618;28;20052;-74
2021/12/19 09:57:18;;;;;;;62.13;14.60;;;;;;;-0.66;93.48;97407.53;5067404;28;20859;-74
2021/12/19 09:59:45;;;;;;;55.95;15.27;;;;;;;-0.68;93.61;97406.91;5067391;28;20051;-74
2021/12/19 10:02:12;;;;;;;54.58;14.45;;;;;;;-0.68;93.69;97394.38;5067463;28;20093;-74
2021/12/19 10:04:40;;;;;;;49.22;15.80;;;;;;;-0.75;93.82;97387.44;5067618;28;20068;-74
2021/12/19 10:07:13;;;;;;;48.28;16.40;;;;;;;-0.72;94.09;97374.47;5066860;28;20464;-74
2021/12/19 10:09:53;;;;;;;53.30;13.75;;;;;;;-0.69;94.22;97367.84;5066796;28;20056;-75
2021/12/19 10:12:36;;;;;;;50.08;13.52;;;;;;;-0.75;94.08;97355.34;5066652;28;20056;-73
2021/12/19 10:15:05;;;;;;;53.25;12.32;;;;;;;-0.71;94.28;97351.19;5066527;28;20052;-73
2021/12/19 10:17:32;;;;;;;55.13;13.55;;;;;;;-0.67;94.27;97347.06;5067397;28;20047;-73
2021/12/19 10:20:02;;;;;;;62.55;13.57;;;;;;;-0.66;94.06;97344.16;5067371;28;20090;-74
2021/12/19 10:22:30;;;;;;;70.28;15.02;;;;;;;-0.73;94.06;97346.09;5067162;28;20040;-73
2021/12/19 10:24:59;;;;;;;63.60;15.27;;;;;;;-0.68;94.37;97335.53;5067491;28;20045;-73
2021/12/19 10:27:39;;;;;;;60.08;15.35;;;;;;;-0.70;94.32;97326.09;5066545;28;20056;-74
2021/12/19 10:30:10;;;;;;;59.67;15.57;;;;;;;-0.65;94.35;97328.91;5066341;28;20060;-74
2021/12/19 10:32:37;;;;;;;55.95;14.57;;;;;;;-0.57;94.35;97320.59;5065941;28;20053;-73
2021/12/19 10:35:15;;;;;;;62.22;17.70;;;;;;;-0.59;94.07;97317.31;5066322;28;20458;-73
2021/12/19 10:37:41;;;;;;;62.22;14.50;;;;;;;-0.62;93.95;97312.44;5066382;28;20446;-74
2021/12/19 10:40:09;;;;;;;58.47;13.98;;;;;;;-0.63;94.19;97318.78;5066337;28;20139;-73
2021/12/19 10:42:50;;;;;;;50.72;13.75;;;;;;;-0.68;94.21;97308.78;5066429;28;20055;-73
2021/12/19 10:45:32;;;;;;;50.65;14.50;;;;;;;-0.65;94.52;97313.69;5066381;28;20533;-74
2021/12/19 10:48:22;;;;;;;59.30;15.43;;;;;;;-0.64;94.77;97311.81;5066079;28;20048;-73
2021/12/19 10:50:52;;;;;;;52.90;14.32;;;;;;;-0.56;94.67;97303.50;5066251;28;20040;-73
2021/12/19 10:53:23;;;;;;;42.65;13.65;;;;;;;-0.64;94.66;97309.97;5066100;28;20498;-73
2021/12/19 10:55:51;;;;;;;47.60;12.93;;;;;;;-0.74;94.62;97298.16;5067085;28;20083;-73
2021/12/19 10:58:30;;;;;;;39.42;13.27;;;;;;;-0.73;95.11;97300.63;5065122;28;20599;-74
2021/12/19 11:01:04;;;;;;;49.78;12.50;;;;;;;-0.81;95.17;97288.34;5066100;28;20143;-74
2021/12/19 11:03:44;;;;;;;47.33;14.45;;;;;;;-0.75;95.29;97291.16;5066093;28;20048;-73
2021/12/19 11:06:20;;;;;;;53.47;14.63;;;;;;;-0.74;95.66;97282.09;5065083;28;20102;-74
2021/12/19 11:08:47;;;;;;;51.80;14.63;;;;;;;-0.64;95.67;97277.03;5066025;28;20052;-73
2021/12/19 11:11:30;;;;;;;81.65;14.43;;;;;;;-0.60;95.61;97272.88;5065540;28;20094;-74
2021/12/19 11:13:59;;;;;;;60.38;15.90;;;;;;;-0.58;95.25;97266.25;5065407;28;20045;-74
2021/12/19 11:16:26;;;;;;;71.45;14.98;;;;;;;-0.65;95.29;97262.03;5065715;28;20052;-74
2021/12/19 11:18:52;;;;;;;55.85;14.35;;;;;;;-0.58;95.31;97257.41;5065621;28;20419;-73
2021/12/19 11:21:19;;;;;;;52.17;15.80;;;;;;;-0.54;95.27;97246.03;5065870;28;20056;-74
2021/12/19 11:23:46;;;;;;;48.20;14.52;;;;;;;-0.60;95.15;97235.44;5066658;28;20075;-74
2021/12/19 11:26:13;;;;;;;51.92;15.02;;;;;;;-0.60;95.35;97224.72;5065999;28;20052;-74
2021/12/19 11:28:40;;;;;;;56.30;14.35;;;;;;;-0.61;95.53;97212.41;5065634;28;20040;-74
2021/12/19 11:31:08;;;;;;;56.63;13.98;;;;;;;-0.53;95.70;97210.22;5065338;28;20520;-73
2021/12/19 11:33:48;;;;;;;47.42;14.88;;;;;;;-0.48;95.75;97214.88;5066516;28;20048;-73
2021/12/19 11:36:16;;;;;;;45.08;12.40;;;;;;;-0.55;95.37;97216.84;5066282;28;20049;-74
2021/12/19 11:38:45;;;;;;;38.97;11.65;;;;;;;-0.60;95.57;97209.50;5065907;28;20052;-73
2021/12/19 11:41:12;;;;;;;43.72;12.77;;;;;;;-0.62;95.60;97200.91;5065531;28;20055;-73
2021/12/19 11:43:40;;;;;;;44.00;13.57;;;;;;;-0.54;95.80;97197.06;5082507;28;20048;-74
2021/12/19 11:46:14;;;;;;;43.08;14.23;;;;;;;-0.48;95.86;97195.34;5088256;28;20052;-73
2021/12/19 11:48:41;;;;;;;46.20;16.05;;;;;;;-0.35;96.09;97189.81;5071237;28;20049;-74
2021/12/19 11:51:16;;;;;;;39.60;13.65;;;;;;;-0.20;95.78;97192.91;5069596;28;20071;-73
2021/12/19 11:53:43;;;;;;;46.97;15.32;;;;;;;-0.10;95.19;97179.78;5070161;28;20508;-73
2021/12/19 11:56:11;;;;;;;42.80;15.30;;;;;;;-0.12;94.48;97175.69;5069166;28;20582;-74
2021/12/19 11:58:42;;;;;;;51.30;15.30;;;;;;;-0.16;94.04;97167.28;5069727;28;20646;-73
2021/12/19 12:01:12;;;;;;;46.53;15.55;;;;;;;-0.11;94.33;97163.91;5069419;28;20167;-74
2021/12/19 12:03:58;;;;;;;41.67;16.20;;;;;;;-0.04;94.51;97161.97;5070206;28;20632;-73
2021/12/19 12:06:40;;;;;;;47.17;16.35;;;;;;;0.04;94.11;97156.25;5059361;28;20048;-74
2021/12/19 12:09:34;;;;;;;43.83;15.27;;;;;;;-0.03;93.55;97140.31;5068593;28;20139;-73